sensor_id;sensor_type;location;lat;lon;timestamp;temperature;humidity
20174;DHT22;10246;50.620;7.232;2023-06-05T00:02:03;16.50;1.00
20174;DHT22;10246;50.620;7.232;2023-06-05T00:04:30;16.50;1.00
20174;DHT22;10246;50.620;7.232;2023-06-05T00:06:57;16.50;1.00
20174;DHT22;10246;50.620;7.232;2023-06-05T00:09:23;16.40;1.00
20174;DHT22;10246;50.620;7.232;2023-06-05T00:11:50;16.40;1.00
20174;DHT22;10246;50.620;7.232;2023-06-05T00:14:18;16.40;1.00
20174;DHT22;10246;50.620;7.232;2023-06-05T00:16:45;16.40;1.00
20174;DHT22;10246;50.620;7.232;2023-06-05T00:19:12;16.30;1.00
20174;DHT22;10246;50.620;7.232;2023-06-05T00:21:38;16.20;1.00
20174;DHT22;10246;50.620;7.232;2023-06-05T00:24:06;16.10;1.00
20174;DHT22;10246;50.620;7.232;2023-06-05T00:26:32;16.00;1.00
20174;DHT22;10246;50.620;7.232;2023-06-05T00:28:59;16.00;1.00
20174;DHT22;10246;50.620;7.232;2023-06-05T00:31:27;16.00;1.00
20174;DHT22;10246;50.620;7.232;2023-06-05T00:33:54;16.00;1.00
20174;DHT22;10246;50.620;7.232;2023-06-05T00:36:21;16.00;1.00
20174;DHT22;10246;50.620;7.232;2023-06-05T00:38:50;16.00;1.00
20174;DHT22;10246;50.620;7.232;2023-06-05T00:41:17;16.00;1.00
20174;DHT22;10246;50.620;7.232;2023-06-05T00:43:43;15.90;1.00
20174;DHT22;10246;50.620;7.232;2023-06-05T00:46:10;15.80;1.00
20174;DHT22;10246;50.620;7.232;2023-06-05T00:48:40;15.70;1.00
20174;DHT22;10246;50.620;7.232;2023-06-05T00:51:08;15.60;1.00
20174;DHT22;10246;50.620;7.232;2023-06-05T00:53:35;15.60;1.00
20174;DHT22;10246;50.620;7.232;2023-06-05T00:56:05;15.60;1.00
20174;DHT22;10246;50.620;7.232;2023-06-05T00:58:31;15.50;1.00
20174;DHT22;10246;50.620;7.232;2023-06-05T01:00:59;15.40;1.00
20174;DHT22;10246;50.620;7.232;2023-06-05T01:03:26;15.40;1.00
20174;DHT22;10246;50.620;7.232;2023-06-05T01:05:56;15.50;1.00
20174;DHT22;10246;50.620;7.232;2023-06-05T01:08:29;15.40;1.00
20174;DHT22;10246;50.620;7.232;2023-06-05T01:11:00;15.40;1.00
20174;DHT22;10246;50.620;7.232;2023-06-05T01:13:31;15.30;1.00
20174;DHT22;10246;50.620;7.232;2023-06-05T01:16:01;15.30;1.00
20174;DHT22;10246;50.620;7.232;2023-06-05T01:18:30;15.20;1.00
20174;DHT22;10246;50.620;7.232;2023-06-05T01:21:01;15.20;1.00
20174;DHT22;10246;50.620;7.232;2023-06-05T01:23:30;15.10;1.00
20174;DHT22;10246;50.620;7.232;2023-06-05T01:25:57;15.10;1.00
20174;DHT22;10246;50.620;7.232;2023-06-05T01:28:29;15.10;1.00
20174;DHT22;10246;50.620;7.232;2023-06-05T01:31:02;15.10;1.00
20174;DHT22;10246;50.620;7.232;2023-06-05T01:33:32;15.00;1.00
20174;DHT22;10246;50.620;7.232;2023-06-05T01:36:01;15.00;1.00
20174;DHT22;10246;50.620;7.232;2023-06-05T01:38:33;14.90;1.00
20174;DHT22;10246;50.620;7.232;2023-06-05T01:41:00;14.90;1.00
20174;DHT22;10246;50.620;7.232;2023-06-05T01:43:29;14.80;1.00
20174;DHT22;10246;50.620;7.232;2023-06-05T01:45:56;14.90;1.00
20174;DHT22;10246;50.620;7.232;2023-06-05T01:48:24;14.90;1.00
20174;DHT22;10246;50.620;7.232;2023-06-05T01:50:55;14.90;1.00
20174;DHT22;10246;50.620;7.232;2023-06-05T01:53:22;14.90;1.00
20174;DHT22;10246;50.620;7.232;2023-06-05T01:55:50;14.80;1.00
20174;DHT22;10246;50.620;7.232;2023-06-05T01:58:20;14.70;1.00
20174;DHT22;10246;50.620;7.232;2023-06-05T02:00:47;14.70;1.00
20174;DHT22;10246;50.620;7.232;2023-06-05T02:03:14;14.70;1.00
20174;DHT22;10246;50.620;7.232;2023-06-05T02:05:42;14.60;1.00
20174;DHT22;10246;50.620;7.232;2023-06-05T02:08:09;14.60;1.00
20174;DHT22;10246;50.620;7.232;2023-06-05T02:10:36;14.60;1.00
20174;DHT22;10246;50.620;7.232;2023-06-05T02:13:09;14.60;1.00
20174;DHT22;10246;50.620;7.232;2023-06-05T02:15:36;14.50;1.00
20174;DHT22;10246;50.620;7.232;2023-06-05T02:24:47;14.30;1.00
20174;DHT22;10246;50.620;7.232;2023-06-05T02:27:14;14.10;1.00
20174;DHT22;10246;50.620;7.232;2023-06-05T02:29:42;14.00;1.00
20174;DHT22;10246;50.620;7.232;2023-06-05T02:32:10;14.00;1.00
20174;DHT22;10246;50.620;7.232;2023-06-05T02:41:15;14.10;1.00
20174;DHT22;10246;50.620;7.232;2023-06-05T02:43:42;14.20;1.00
20174;DHT22;10246;50.620;7.232;2023-06-05T02:46:10;14.00;1.00
20174;DHT22;10246;50.620;7.232;2023-06-05T02:48:37;13.90;1.00
20174;DHT22;10246;50.620;7.232;2023-06-05T02:51:04;13.70;1.00
20174;DHT22;10246;50.620;7.232;2023-06-05T02:57:00;13.40;1.00
20174;DHT22;10246;50.620;7.232;2023-06-05T02:59:26;13.30;1.00
20174;DHT22;10246;50.620;7.232;2023-06-05T03:01:58;13.30;1.00
20174;DHT22;10246;50.620;7.232;2023-06-05T03:04:25;13.10;1.00
20174;DHT22;10246;50.620;7.232;2023-06-05T03:06:52;13.00;1.00
20174;DHT22;10246;50.620;7.232;2023-06-05T03:09:22;12.90;1.00
20174;DHT22;10246;50.620;7.232;2023-06-05T03:11:49;13.00;1.00
20174;DHT22;10246;50.620;7.232;2023-06-05T03:14:16;13.00;1.00
20174;DHT22;10246;50.620;7.232;2023-06-05T03:16:42;12.90;1.00
20174;DHT22;10246;50.620;7.232;2023-06-05T03:19:12;12.90;1.00
20174;DHT22;10246;50.620;7.232;2023-06-05T03:21:39;12.90;1.00
20174;DHT22;10246;50.620;7.232;2023-06-05T03:24:09;13.00;1.00
20174;DHT22;10246;50.620;7.232;2023-06-05T03:26:38;13.00;1.00
20174;DHT22;10246;50.620;7.232;2023-06-05T03:29:06;12.90;1.00
20174;DHT22;10246;50.620;7.232;2023-06-05T03:31:32;12.80;1.00
20174;DHT22;10246;50.620;7.232;2023-06-05T03:33:59;12.80;1.00
20174;DHT22;10246;50.620;7.232;2023-06-05T03:36:27;12.90;1.00
20174;DHT22;10246;50.620;7.232;2023-06-05T03:38:54;13.00;1.00
20174;DHT22;10246;50.620;7.232;2023-06-05T03:41:22;13.00;1.00
20174;DHT22;10246;50.620;7.232;2023-06-05T03:43:49;13.00;1.00
20174;DHT22;10246;50.620;7.232;2023-06-05T03:46:16;12.90;1.00
20174;DHT22;10246;50.620;7.232;2023-06-05T03:48:44;12.80;1.00
20174;DHT22;10246;50.620;7.232;2023-06-05T03:51:11;12.90;1.00
20174;DHT22;10246;50.620;7.232;2023-06-05T03:53:40;12.90;1.00
20174;DHT22;10246;50.620;7.232;2023-06-05T03:56:08;13.00;1.00
20174;DHT22;10246;50.620;7.232;2023-06-05T03:58:35;13.00;1.00
20174;DHT22;10246;50.620;7.232;2023-06-05T04:01:03;12.90;1.00
20174;DHT22;10246;50.620;7.232;2023-06-05T04:03:31;12.80;1.00
20174;DHT22;10246;50.620;7.232;2023-06-05T04:05:58;12.90;1.00
20174;DHT22;10246;50.620;7.232;2023-06-05T04:08:25;12.90;1.00
20174;DHT22;10246;50.620;7.232;2023-06-05T04:10:54;13.00;1.00
20174;DHT22;10246;50.620;7.232;2023-06-05T04:13:20;13.00;1.00
20174;DHT22;10246;50.620;7.232;2023-06-05T04:15:48;13.10;1.00
20174;DHT22;10246;50.620;7.232;2023-06-05T04:18:15;13.00;1.00
20174;DHT22;10246;50.620;7.232;2023-06-05T04:20:42;13.10;1.00
20174;DHT22;10246;50.620;7.232;2023-06-05T04:23:10;13.10;1.00
20174;DHT22;10246;50.620;7.232;2023-06-05T04:25:36;13.00;1.00
20174;DHT22;10246;50.620;7.232;2023-06-05T04:28:12;12.90;1.00
20174;DHT22;10246;50.620;7.232;2023-06-05T04:30:42;13.00;1.00
20174;DHT22;10246;50.620;7.232;2023-06-05T04:33:13;13.00;1.00
20174;DHT22;10246;50.620;7.232;2023-06-05T04:35:40;12.90;1.00
20174;DHT22;10246;50.620;7.232;2023-06-05T04:38:07;12.80;1.00
20174;DHT22;10246;50.620;7.232;2023-06-05T04:40:33;12.70;1.00
20174;DHT22;10246;50.620;7.232;2023-06-05T04:43:00;12.60;1.00
20174;DHT22;10246;50.620;7.232;2023-06-05T04:45:29;12.50;1.00
20174;DHT22;10246;50.620;7.232;2023-06-05T04:47:55;12.50;1.00
20174;DHT22;10246;50.620;7.232;2023-06-05T04:50:23;12.50;1.00
20174;DHT22;10246;50.620;7.232;2023-06-05T04:52:51;12.60;1.00
20174;DHT22;10246;50.620;7.232;2023-06-05T04:55:19;12.60;1.00
20174;DHT22;10246;50.620;7.232;2023-06-05T04:57:46;12.70;1.00
20174;DHT22;10246;50.620;7.232;2023-06-05T05:00:14;12.80;1.00
20174;DHT22;10246;50.620;7.232;2023-06-05T05:02:42;12.90;1.00
20174;DHT22;10246;50.620;7.232;2023-06-05T05:05:09;13.00;1.00
20174;DHT22;10246;50.620;7.232;2023-06-05T05:07:39;13.00;1.00
20174;DHT22;10246;50.620;7.232;2023-06-05T05:10:07;13.00;1.00
20174;DHT22;10246;50.620;7.232;2023-06-05T05:12:34;13.00;1.00
20174;DHT22;10246;50.620;7.232;2023-06-05T05:15:02;12.90;1.00
20174;DHT22;10246;50.620;7.232;2023-06-05T05:17:29;12.90;1.00
20174;DHT22;10246;50.620;7.232;2023-06-05T05:19:57;12.90;1.00
20174;DHT22;10246;50.620;7.232;2023-06-05T05:22:24;13.00;1.00
20174;DHT22;10246;50.620;7.232;2023-06-05T05:24:51;13.00;1.00
20174;DHT22;10246;50.620;7.232;2023-06-05T05:27:18;13.10;1.00
20174;DHT22;10246;50.620;7.232;2023-06-05T05:29:45;13.20;1.00
20174;DHT22;10246;50.620;7.232;2023-06-05T05:32:12;13.20;1.00
20174;DHT22;10246;50.620;7.232;2023-06-05T05:34:38;13.40;1.00
20174;DHT22;10246;50.620;7.232;2023-06-05T05:37:07;13.50;1.00
20174;DHT22;10246;50.620;7.232;2023-06-05T05:39:33;13.60;1.00
20174;DHT22;10246;50.620;7.232;2023-06-05T05:42:00;13.70;1.00
20174;DHT22;10246;50.620;7.232;2023-06-05T05:44:27;13.80;1.00
20174;DHT22;10246;50.620;7.232;2023-06-05T05:46:54;13.90;1.00
20174;DHT22;10246;50.620;7.232;2023-06-05T05:49:21;14.00;1.00
20174;DHT22;10246;50.620;7.232;2023-06-05T05:51:48;14.10;1.00
20174;DHT22;10246;50.620;7.232;2023-06-05T05:54:16;14.30;1.00
20174;DHT22;10246;50.620;7.232;2023-06-05T05:56:43;14.40;1.00
20174;DHT22;10246;50.620;7.232;2023-06-05T05:59:10;14.60;1.00
20174;DHT22;10246;50.620;7.232;2023-06-05T06:01:37;14.70;1.00
20174;DHT22;10246;50.620;7.232;2023-06-05T06:04:03;14.80;1.00
20174;DHT22;10246;50.620;7.232;2023-06-05T06:06:30;15.00;1.00
20174;DHT22;10246;50.620;7.232;2023-06-05T06:08:58;15.20;1.00
20174;DHT22;10246;50.620;7.232;2023-06-05T06:11:27;15.40;1.00
20174;DHT22;10246;50.620;7.232;2023-06-05T06:13:54;15.50;1.00
20174;DHT22;10246;50.620;7.232;2023-06-05T06:16:21;15.60;1.00
20174;DHT22;10246;50.620;7.232;2023-06-05T06:18:47;15.70;1.00
20174;DHT22;10246;50.620;7.232;2023-06-05T06:21:14;15.80;1.00
20174;DHT22;10246;50.620;7.232;2023-06-05T06:23:41;15.90;1.00
20174;DHT22;10246;50.620;7.232;2023-06-05T06:26:08;16.10;1.00
20174;DHT22;10246;50.620;7.232;2023-06-05T06:28:36;16.30;1.00
20174;DHT22;10246;50.620;7.232;2023-06-05T06:31:02;16.40;1.00
20174;DHT22;10246;50.620;7.232;2023-06-05T06:33:30;16.50;1.00
20174;DHT22;10246;50.620;7.232;2023-06-05T06:35:57;16.70;1.00
20174;DHT22;10246;50.620;7.232;2023-06-05T06:38:25;16.80;1.00
20174;DHT22;10246;50.620;7.232;2023-06-05T06:40:55;16.90;1.00
20174;DHT22;10246;50.620;7.232;2023-06-05T06:43:23;17.00;1.00
20174;DHT22;10246;50.620;7.232;2023-06-05T06:45:52;17.00;1.00
20174;DHT22;10246;50.620;7.232;2023-06-05T06:48:19;17.10;1.00
20174;DHT22;10246;50.620;7.232;2023-06-05T06:50:46;17.20;1.00
20174;DHT22;10246;50.620;7.232;2023-06-05T06:53:13;17.40;1.00
20174;DHT22;10246;50.620;7.232;2023-06-05T06:55:40;17.50;1.00
20174;DHT22;10246;50.620;7.232;2023-06-05T06:58:07;17.50;1.00
20174;DHT22;10246;50.620;7.232;2023-06-05T07:00:34;17.40;1.00
20174;DHT22;10246;50.620;7.232;2023-06-05T07:03:02;17.50;1.00
20174;DHT22;10246;50.620;7.232;2023-06-05T07:05:29;17.70;1.00
20174;DHT22;10246;50.620;7.232;2023-06-05T07:07:56;17.90;1.00
20174;DHT22;10246;50.620;7.232;2023-06-05T07:10:26;18.10;1.00
20174;DHT22;10246;50.620;7.232;2023-06-05T07:12:53;18.30;1.00
20174;DHT22;10246;50.620;7.232;2023-06-05T07:15:20;18.30;1.00
20174;DHT22;10246;50.620;7.232;2023-06-05T07:17:46;18.40;1.00
20174;DHT22;10246;50.620;7.232;2023-06-05T07:20:15;18.50;1.00
20174;DHT22;10246;50.620;7.232;2023-06-05T07:22:43;18.60;1.00
20174;DHT22;10246;50.620;7.232;2023-06-05T07:25:10;18.70;1.00
20174;DHT22;10246;50.620;7.232;2023-06-05T07:27:38;18.80;1.00
20174;DHT22;10246;50.620;7.232;2023-06-05T07:30:07;18.90;1.00
20174;DHT22;10246;50.620;7.232;2023-06-05T07:32:34;19.10;1.00
20174;DHT22;10246;50.620;7.232;2023-06-05T07:35:00;19.30;1.00
20174;DHT22;10246;50.620;7.232;2023-06-05T07:37:28;19.40;1.00
20174;DHT22;10246;50.620;7.232;2023-06-05T07:39:55;19.50;1.00
20174;DHT22;10246;50.620;7.232;2023-06-05T07:42:22;19.30;1.00
20174;DHT22;10246;50.620;7.232;2023-06-05T07:44:49;19.40;1.00
20174;DHT22;10246;50.620;7.232;2023-06-05T07:47:16;19.40;1.00
20174;DHT22;10246;50.620;7.232;2023-06-05T07:49:43;19.60;1.00
20174;DHT22;10246;50.620;7.232;2023-06-05T07:52:10;19.70;1.00
20174;DHT22;10246;50.620;7.232;2023-06-05T07:54:38;19.80;1.00
20174;DHT22;10246;50.620;7.232;2023-06-05T07:57:04;19.90;1.00
20174;DHT22;10246;50.620;7.232;2023-06-05T07:59:33;20.00;1.00
20174;DHT22;10246;50.620;7.232;2023-06-05T08:02:00;20.20;1.00
20174;DHT22;10246;50.620;7.232;2023-06-05T08:04:37;20.20;1.00
20174;DHT22;10246;50.620;7.232;2023-06-05T08:07:06;20.10;1.00
20174;DHT22;10246;50.620;7.232;2023-06-05T08:09:33;20.20;1.00
20174;DHT22;10246;50.620;7.232;2023-06-05T08:12:03;20.50;1.00
20174;DHT22;10246;50.620;7.232;2023-06-05T08:14:31;20.50;1.00
20174;DHT22;10246;50.620;7.232;2023-06-05T08:16:58;20.50;1.00
20174;DHT22;10246;50.620;7.232;2023-06-05T08:19:25;20.60;1.00
20174;DHT22;10246;50.620;7.232;2023-06-05T08:21:52;20.60;1.00
20174;DHT22;10246;50.620;7.232;2023-06-05T08:24:19;20.60;1.00
20174;DHT22;10246;50.620;7.232;2023-06-05T08:26:47;20.70;1.00
20174;DHT22;10246;50.620;7.232;2023-06-05T08:29:15;20.90;1.00
20174;DHT22;10246;50.620;7.232;2023-06-05T08:31:42;21.30;1.00
20174;DHT22;10246;50.620;7.232;2023-06-05T08:34:09;21.30;1.00
20174;DHT22;10246;50.620;7.232;2023-06-05T08:36:35;21.20;1.00
20174;DHT22;10246;50.620;7.232;2023-06-05T08:39:02;21.30;1.00
20174;DHT22;10246;50.620;7.232;2023-06-05T08:41:30;21.50;1.00
20174;DHT22;10246;50.620;7.232;2023-06-05T08:43:57;21.60;1.00
20174;DHT22;10246;50.620;7.232;2023-06-05T08:46:28;21.50;1.00
20174;DHT22;10246;50.620;7.232;2023-06-05T08:48:57;21.60;1.00
20174;DHT22;10246;50.620;7.232;2023-06-05T08:51:24;21.80;1.00
20174;DHT22;10246;50.620;7.232;2023-06-05T08:53:53;21.90;1.00
20174;DHT22;10246;50.620;7.232;2023-06-05T08:56:21;22.00;1.00
20174;DHT22;10246;50.620;7.232;2023-06-05T08:58:48;22.30;1.00
20174;DHT22;10246;50.620;7.232;2023-06-05T09:01:15;22.50;1.00
20174;DHT22;10246;50.620;7.232;2023-06-05T09:03:44;22.50;1.00
20174;DHT22;10246;50.620;7.232;2023-06-05T09:06:11;22.30;1.00
20174;DHT22;10246;50.620;7.232;2023-06-05T09:08:37;22.10;1.00
20174;DHT22;10246;50.620;7.232;2023-06-05T09:11:25;22.00;1.00
20174;DHT22;10246;50.620;7.232;2023-06-05T09:13:53;22.20;1.00
20174;DHT22;10246;50.620;7.232;2023-06-05T09:16:21;22.60;1.00
20174;DHT22;10246;50.620;7.232;2023-06-05T09:18:53;22.90;1.00
20174;DHT22;10246;50.620;7.232;2023-06-05T09:21:21;23.20;1.00
20174;DHT22;10246;50.620;7.232;2023-06-05T09:24:09;23.30;1.00
20174;DHT22;10246;50.620;7.232;2023-06-05T09:26:46;23.20;1.00
20174;DHT22;10246;50.620;7.232;2023-06-05T09:29:13;23.40;1.00
20174;DHT22;10246;50.620;7.232;2023-06-05T09:31:40;23.50;1.00
20174;DHT22;10246;50.620;7.232;2023-06-05T09:34:08;23.60;1.00
20174;DHT22;10246;50.620;7.232;2023-06-05T09:36:45;23.80;1.00
20174;DHT22;10246;50.620;7.232;2023-06-05T09:39:14;23.90;1.00
20174;DHT22;10246;50.620;7.232;2023-06-05T09:41:42;24.20;1.00
20174;DHT22;10246;50.620;7.232;2023-06-05T09:44:10;24.40;1.00
20174;DHT22;10246;50.620;7.232;2023-06-05T09:46:53;24.50;1.00
20174;DHT22;10246;50.620;7.232;2023-06-05T09:49:46;24.70;1.00
20174;DHT22;10246;50.620;7.232;2023-06-05T09:52:13;24.70;1.00
20174;DHT22;10246;50.620;7.232;2023-06-05T09:54:41;24.60;1.00
20174;DHT22;10246;50.620;7.232;2023-06-05T09:57:11;24.50;1.00
20174;DHT22;10246;50.620;7.232;2023-06-05T09:59:44;24.50;1.00
20174;DHT22;10246;50.620;7.232;2023-06-05T10:02:12;24.60;1.00
20174;DHT22;10246;50.620;7.232;2023-06-05T10:04:46;24.60;1.00
20174;DHT22;10246;50.620;7.232;2023-06-05T10:07:15;24.80;1.00
20174;DHT22;10246;50.620;7.232;2023-06-05T10:09:43;24.80;1.00
20174;DHT22;10246;50.620;7.232;2023-06-05T10:12:10;24.60;1.00
20174;DHT22;10246;50.620;7.232;2023-06-05T10:14:41;24.60;1.00
20174;DHT22;10246;50.620;7.232;2023-06-05T10:17:08;24.80;1.00
20174;DHT22;10246;50.620;7.232;2023-06-05T10:19:36;25.10;1.00
20174;DHT22;10246;50.620;7.232;2023-06-05T10:22:04;25.30;1.00
20174;DHT22;10246;50.620;7.232;2023-06-05T10:24:33;25.70;1.00
20174;DHT22;10246;50.620;7.232;2023-06-05T10:27:30;25.90;1.00
20174;DHT22;10246;50.620;7.232;2023-06-05T10:30:25;26.20;1.00
20174;DHT22;10246;50.620;7.232;2023-06-05T10:33:06;26.10;1.00
20174;DHT22;10246;50.620;7.232;2023-06-05T10:35:45;26.10;1.00
20174;DHT22;10246;50.620;7.232;2023-06-05T10:38:19;26.20;1.00
20174;DHT22;10246;50.620;7.232;2023-06-05T10:40:48;26.30;1.00
20174;DHT22;10246;50.620;7.232;2023-06-05T10:43:24;26.30;1.00
20174;DHT22;10246;50.620;7.232;2023-06-05T10:45:52;26.50;1.00
20174;DHT22;10246;50.620;7.232;2023-06-05T10:48:19;26.80;1.00
20174;DHT22;10246;50.620;7.232;2023-06-05T10:50:46;27.10;1.00
20174;DHT22;10246;50.620;7.232;2023-06-05T10:53:42;27.30;1.00
20174;DHT22;10246;50.620;7.232;2023-06-05T10:56:09;27.20;1.00
20174;DHT22;10246;50.620;7.232;2023-06-05T10:59:14;27.50;1.00
20174;DHT22;10246;50.620;7.232;2023-06-05T11:01:42;27.40;1.00
20174;DHT22;10246;50.620;7.232;2023-06-05T11:07:15;27.20;1.00
20174;DHT22;10246;50.620;7.232;2023-06-05T11:10:04;26.80;1.00
20174;DHT22;10246;50.620;7.232;2023-06-05T11:12:58;26.80;1.00
20174;DHT22;10246;50.620;7.232;2023-06-05T11:15:39;27.10;1.00
20174;DHT22;10246;50.620;7.232;2023-06-05T11:18:31;27.30;1.00
20174;DHT22;10246;50.620;7.232;2023-06-05T11:20:59;27.40;1.00
20174;DHT22;10246;50.620;7.232;2023-06-05T11:23:27;27.60;1.00
20174;DHT22;10246;50.620;7.232;2023-06-05T11:25:57;27.70;1.00
20174;DHT22;10246;50.620;7.232;2023-06-05T11:28:40;27.80;1.00
20174;DHT22;10246;50.620;7.232;2023-06-05T11:31:09;28.00;1.00
20174;DHT22;10246;50.620;7.232;2023-06-05T11:33:36;28.30;1.00
20174;DHT22;10246;50.620;7.232;2023-06-05T11:36:05;28.10;1.00
20174;DHT22;10246;50.620;7.232;2023-06-05T11:38:33;27.60;1.00
20174;DHT22;10246;50.620;7.232;2023-06-05T11:41:06;27.40;1.00
20174;DHT22;10246;50.620;7.232;2023-06-05T11:43:46;27.60;1.00
20174;DHT22;10246;50.620;7.232;2023-06-05T11:46:13;27.40;1.00
20174;DHT22;10246;50.620;7.232;2023-06-05T11:48:43;27.30;1.00
20174;DHT22;10246;50.620;7.232;2023-06-05T11:51:11;27.50;1.00
20174;DHT22;10246;50.620;7.232;2023-06-05T11:53:45;27.80;1.00
20174;DHT22;10246;50.620;7.232;2023-06-05T11:56:15;28.00;1.00
20174;DHT22;10246;50.620;7.232;2023-06-05T11:58:43;27.80;1.00
20174;DHT22;10246;50.620;7.232;2023-06-05T12:01:13;27.80;1.00
20174;DHT22;10246;50.620;7.232;2023-06-05T12:03:43;28.20;1.00
20174;DHT22;10246;50.620;7.232;2023-06-05T12:06:11;28.50;1.00
20174;DHT22;10246;50.620;7.232;2023-06-05T12:08:39;28.90;1.00
20174;DHT22;10246;50.620;7.232;2023-06-05T12:11:21;28.90;1.00
20174;DHT22;10246;50.620;7.232;2023-06-05T12:13:49;28.80;1.00
20174;DHT22;10246;50.620;7.232;2023-06-05T12:16:17;29.00;1.00
20174;DHT22;10246;50.620;7.232;2023-06-05T12:18:44;29.20;1.00
20174;DHT22;10246;50.620;7.232;2023-06-05T12:21:19;29.10;1.00
20174;DHT22;10246;50.620;7.232;2023-06-05T12:23:47;28.60;1.00
20174;DHT22;10246;50.620;7.232;2023-06-05T12:26:14;28.60;1.00
20174;DHT22;10246;50.620;7.232;2023-06-05T12:28:45;28.60;1.00
20174;DHT22;10246;50.620;7.232;2023-06-05T12:31:33;28.50;1.00
20174;DHT22;10246;50.620;7.232;2023-06-05T12:34:01;28.50;1.00
20174;DHT22;10246;50.620;7.232;2023-06-05T12:36:31;28.60;1.00
20174;DHT22;10246;50.620;7.232;2023-06-05T12:39:02;28.80;1.00
20174;DHT22;10246;50.620;7.232;2023-06-05T12:41:33;29.00;1.00
20174;DHT22;10246;50.620;7.232;2023-06-05T12:44:01;29.00;1.00
20174;DHT22;10246;50.620;7.232;2023-06-05T12:46:30;28.80;1.00
20174;DHT22;10246;50.620;7.232;2023-06-05T12:48:57;28.50;1.00
20174;DHT22;10246;50.620;7.232;2023-06-05T12:51:24;28.60;1.00
20174;DHT22;10246;50.620;7.232;2023-06-05T12:53:52;28.80;1.00
20174;DHT22;10246;50.620;7.232;2023-06-05T12:56:19;28.60;1.00
20174;DHT22;10246;50.620;7.232;2023-06-05T12:58:54;28.50;1.00
20174;DHT22;10246;50.620;7.232;2023-06-05T13:01:23;28.70;1.00
20174;DHT22;10246;50.620;7.232;2023-06-05T13:03:50;28.90;1.00
20174;DHT22;10246;50.620;7.232;2023-06-05T13:06:18;28.80;1.00
20174;DHT22;10246;50.620;7.232;2023-06-05T13:08:45;28.60;1.00
20174;DHT22;10246;50.620;7.232;2023-06-05T13:11:13;28.30;1.00
20174;DHT22;10246;50.620;7.232;2023-06-05T13:13:41;28.10;1.00
20174;DHT22;10246;50.620;7.232;2023-06-05T13:16:09;28.20;1.00
20174;DHT22;10246;50.620;7.232;2023-06-05T13:18:38;28.50;1.00
20174;DHT22;10246;50.620;7.232;2023-06-05T13:21:05;28.80;1.00
20174;DHT22;10246;50.620;7.232;2023-06-05T13:23:32;29.10;1.00
20174;DHT22;10246;50.620;7.232;2023-06-05T13:25:59;29.20;1.00
20174;DHT22;10246;50.620;7.232;2023-06-05T13:28:26;29.50;1.00
20174;DHT22;10246;50.620;7.232;2023-06-05T13:30:53;29.80;1.00
20174;DHT22;10246;50.620;7.232;2023-06-05T13:33:20;29.70;1.00
20174;DHT22;10246;50.620;7.232;2023-06-05T13:35:49;29.30;1.00
20174;DHT22;10246;50.620;7.232;2023-06-05T13:38:16;29.30;1.00
20174;DHT22;10246;50.620;7.232;2023-06-05T13:40:44;29.30;1.00
20174;DHT22;10246;50.620;7.232;2023-06-05T13:43:14;29.60;1.00
20174;DHT22;10246;50.620;7.232;2023-06-05T13:45:42;29.80;1.00
20174;DHT22;10246;50.620;7.232;2023-06-05T13:48:09;30.30;1.00
20174;DHT22;10246;50.620;7.232;2023-06-05T13:50:36;30.40;1.00
20174;DHT22;10246;50.620;7.232;2023-06-05T13:53:04;30.30;1.00
20174;DHT22;10246;50.620;7.232;2023-06-05T13:55:31;30.40;1.00
20174;DHT22;10246;50.620;7.232;2023-06-05T13:57:58;30.40;1.00
20174;DHT22;10246;50.620;7.232;2023-06-05T14:00:27;29.90;1.00
20174;DHT22;10246;50.620;7.232;2023-06-05T14:02:54;29.80;1.00
20174;DHT22;10246;50.620;7.232;2023-06-05T14:05:21;29.70;1.00
20174;DHT22;10246;50.620;7.232;2023-06-05T14:07:48;30.00;1.00
20174;DHT22;10246;50.620;7.232;2023-06-05T14:10:17;30.20;1.00
20174;DHT22;10246;50.620;7.232;2023-06-05T14:12:44;30.40;1.00
20174;DHT22;10246;50.620;7.232;2023-06-05T14:15:11;30.20;1.00
20174;DHT22;10246;50.620;7.232;2023-06-05T14:17:37;30.30;1.00
20174;DHT22;10246;50.620;7.232;2023-06-05T14:20:05;30.30;1.00
20174;DHT22;10246;50.620;7.232;2023-06-05T14:22:34;30.20;1.00
20174;DHT22;10246;50.620;7.232;2023-06-05T14:25:01;30.30;1.00
20174;DHT22;10246;50.620;7.232;2023-06-05T14:27:29;30.30;1.00
20174;DHT22;10246;50.620;7.232;2023-06-05T14:29:56;30.40;1.00
20174;DHT22;10246;50.620;7.232;2023-06-05T14:32:23;30.70;1.00
20174;DHT22;10246;50.620;7.232;2023-06-05T14:34:50;31.00;1.00
20174;DHT22;10246;50.620;7.232;2023-06-05T14:37:17;30.70;1.00
20174;DHT22;10246;50.620;7.232;2023-06-05T14:39:43;30.80;1.00
20174;DHT22;10246;50.620;7.232;2023-06-05T14:42:10;30.90;1.00
20174;DHT22;10246;50.620;7.232;2023-06-05T14:44:39;30.90;1.00
20174;DHT22;10246;50.620;7.232;2023-06-05T14:47:06;30.90;1.00
20174;DHT22;10246;50.620;7.232;2023-06-05T14:49:33;31.00;1.00
20174;DHT22;10246;50.620;7.232;2023-06-05T14:52:00;31.00;1.00
20174;DHT22;10246;50.620;7.232;2023-06-05T14:54:27;31.10;1.00
20174;DHT22;10246;50.620;7.232;2023-06-05T14:56:53;30.70;1.00
20174;DHT22;10246;50.620;7.232;2023-06-05T14:59:20;30.70;1.00
20174;DHT22;10246;50.620;7.232;2023-06-05T15:01:48;30.60;1.00
20174;DHT22;10246;50.620;7.232;2023-06-05T15:04:15;30.30;1.00
20174;DHT22;10246;50.620;7.232;2023-06-05T15:06:41;30.00;1.00
20174;DHT22;10246;50.620;7.232;2023-06-05T15:09:08;29.80;1.00
20174;DHT22;10246;50.620;7.232;2023-06-05T15:11:35;29.70;1.00
20174;DHT22;10246;50.620;7.232;2023-06-05T15:14:02;29.50;1.00
20174;DHT22;10246;50.620;7.232;2023-06-05T15:16:28;29.50;1.00
20174;DHT22;10246;50.620;7.232;2023-06-05T15:18:57;29.50;1.00
20174;DHT22;10246;50.620;7.232;2023-06-05T15:21:23;29.60;1.00
20174;DHT22;10246;50.620;7.232;2023-06-05T15:23:50;29.90;1.00
20174;DHT22;10246;50.620;7.232;2023-06-05T15:26:17;30.00;1.00
20174;DHT22;10246;50.620;7.232;2023-06-05T15:28:44;30.40;1.00
20174;DHT22;10246;50.620;7.232;2023-06-05T15:31:10;30.80;1.00
20174;DHT22;10246;50.620;7.232;2023-06-05T15:33:37;30.70;1.00
20174;DHT22;10246;50.620;7.232;2023-06-05T15:36:06;30.70;1.00
20174;DHT22;10246;50.620;7.232;2023-06-05T15:38:33;30.80;1.00
20174;DHT22;10246;50.620;7.232;2023-06-05T15:40:59;30.60;1.00
20174;DHT22;10246;50.620;7.232;2023-06-05T15:43:26;30.30;1.00
20174;DHT22;10246;50.620;7.232;2023-06-05T15:45:53;30.20;1.00
20174;DHT22;10246;50.620;7.232;2023-06-05T15:48:20;30.40;1.00
20174;DHT22;10246;50.620;7.232;2023-06-05T15:50:48;30.60;1.00
20174;DHT22;10246;50.620;7.232;2023-06-05T15:53:16;30.40;1.00
20174;DHT22;10246;50.620;7.232;2023-06-05T15:55:44;30.50;1.00
20174;DHT22;10246;50.620;7.232;2023-06-05T15:58:11;30.50;1.00
20174;DHT22;10246;50.620;7.232;2023-06-05T16:00:38;30.30;1.00
20174;DHT22;10246;50.620;7.232;2023-06-05T16:03:05;29.90;1.00
20174;DHT22;10246;50.620;7.232;2023-06-05T16:05:32;29.70;1.00
20174;DHT22;10246;50.620;7.232;2023-06-05T16:08:01;29.70;1.00
20174;DHT22;10246;50.620;7.232;2023-06-05T16:10:29;29.40;1.00
20174;DHT22;10246;50.620;7.232;2023-06-05T16:12:55;29.10;1.00
20174;DHT22;10246;50.620;7.232;2023-06-05T16:15:22;29.00;1.00